Concord, Georgia
Current Conditions -  °F | °C
As of 5:15 AM on Saturday 22 Nov 2014 (Local Time) from K6A2 Reporting Station
Clear Clear  
Wind Chill: 36°   Ceiling: Unl
Heat Index: 39°   Visibility: 10mi
Dew Point: 34°   Wind: 5mph
Humidity: 81%   Direction: 60°ENE
Pressure: 30.42"   Gusts: NA
Location:  33.09°N, 84.44°W
Report Text: K6A2 221015Z AUTO 06004KT 10SM CLR 04/01 A3042 RMK AO2
Loading
Personal Weather Stations






























Interactive Weather Map New forecast layout! Learn more

10-Day Weather Forecast

Advertisements
Track Severe Weather on mobile